sensor_id;sensor_type;location;lat;lon;timestamp;pressure;altitude;pressure_sealevel;temperature;humidity
44457;BME280;30159;49.316;8.558;2023-05-23T00:01:58;100201.69;;;19.11;100.00
44457;BME280;30159;49.316;8.558;2023-05-23T00:04:26;100194.41;;;19.03;100.00
44457;BME280;30159;49.316;8.558;2023-05-23T00:06:52;100204.31;;;19.07;100.00
44457;BME280;30159;49.316;8.558;2023-05-23T00:09:19;100201.00;;;19.02;100.00
44457;BME280;30159;49.316;8.558;2023-05-23T00:11:45;100204.44;;;18.99;100.00
44457;BME280;30159;49.316;8.558;2023-05-23T00:14:14;100204.28;;;18.95;100.00
44457;BME280;30159;49.316;8.558;2023-05-23T00:16:41;100196.00;;;18.91;100.00
44457;BME280;30159;49.316;8.558;2023-05-23T00:19:09;100207.63;;;18.88;100.00
44457;BME280;30159;49.316;8.558;2023-05-23T00:21:35;100201.97;;;18.72;100.00
44457;BME280;30159;49.316;8.558;2023-05-23T00:24:02;100204.75;;;18.85;100.00
44457;BME280;30159;49.316;8.558;2023-05-23T00:26:30;100210.91;;;18.82;100.00
44457;BME280;30159;49.316;8.558;2023-05-23T00:28:56;100214.94;;;18.75;100.00
44457;BME280;30159;49.316;8.558;2023-05-23T00:31:24;100221.91;;;18.73;100.00
44457;BME280;30159;49.316;8.558;2023-05-23T00:33:51;100209.25;;;18.68;100.00
44457;BME280;30159;49.316;8.558;2023-05-23T00:36:18;100212.66;;;18.65;100.00
44457;BME280;30159;49.316;8.558;2023-05-23T00:38:46;100210.59;;;18.62;100.00
44457;BME280;30159;49.316;8.558;2023-05-23T00:41:13;100206.28;;;18.61;100.00
44457;BME280;30159;49.316;8.558;2023-05-23T00:43:40;100211.28;;;18.59;100.00
44457;BME280;30159;49.316;8.558;2023-05-23T00:46:07;100212.75;;;18.57;100.00
44457;BME280;30159;49.316;8.558;2023-05-23T00:48:36;100171.59;;;18.28;100.00
44457;BME280;30159;49.316;8.558;2023-05-23T00:51:03;100210.25;;;18.51;100.00
44457;BME280;30159;49.316;8.558;2023-05-23T00:53:30;100215.56;;;18.48;100.00
44457;BME280;30159;49.316;8.558;2023-05-23T00:55:57;100213.63;;;18.48;100.00
44457;BME280;30159;49.316;8.558;2023-05-23T00:58:23;100216.72;;;18.47;100.00
44457;BME280;30159;49.316;8.558;2023-05-23T01:00:50;100211.25;;;18.47;100.00
44457;BME280;30159;49.316;8.558;2023-05-23T01:03:18;100218.66;;;18.46;100.00
44457;BME280;30159;49.316;8.558;2023-05-23T01:05:46;100217.72;;;18.42;100.00
44457;BME280;30159;49.316;8.558;2023-05-23T01:08:13;100203.47;;;18.37;100.00
44457;BME280;30159;49.316;8.558;2023-05-23T01:10:40;100217.03;;;18.45;100.00
44457;BME280;30159;49.316;8.558;2023-05-23T01:13:15;100216.94;;;18.42;100.00
44457;BME280;30159;49.316;8.558;2023-05-23T01:15:49;100215.53;;;18.36;100.00
44457;BME280;30159;49.316;8.558;2023-05-23T01:18:20;100198.19;;;18.19;100.00
44457;BME280;30159;49.316;8.558;2023-05-23T01:20:53;100208.69;;;18.29;100.00
44457;BME280;30159;49.316;8.558;2023-05-23T01:23:35;100214.59;;;18.31;100.00
44457;BME280;30159;49.316;8.558;2023-05-23T01:26:16;100201.38;;;18.21;100.00
44457;BME280;30159;49.316;8.558;2023-05-23T01:28:47;100222.78;;;18.31;100.00
44457;BME280;30159;49.316;8.558;2023-05-23T01:31:16;100231.19;;;18.26;100.00
44457;BME280;30159;49.316;8.558;2023-05-23T01:33:45;100227.88;;;18.21;100.00
44457;BME280;30159;49.316;8.558;2023-05-23T01:36:12;100232.88;;;18.19;100.00
44457;BME280;30159;49.316;8.558;2023-05-23T01:38:39;100240.13;;;18.15;100.00
44457;BME280;30159;49.316;8.558;2023-05-23T01:41:05;100240.00;;;18.11;100.00
44457;BME280;30159;49.316;8.558;2023-05-23T01:43:32;100245.34;;;18.07;100.00
44457;BME280;30159;49.316;8.558;2023-05-23T01:46:01;100240.19;;;18.06;100.00
44457;BME280;30159;49.316;8.558;2023-05-23T01:48:30;100240.88;;;18.03;100.00
44457;BME280;30159;49.316;8.558;2023-05-23T01:50:57;100226.34;;;17.90;100.00
44457;BME280;30159;49.316;8.558;2023-05-23T01:53:24;100234.00;;;17.97;100.00
44457;BME280;30159;49.316;8.558;2023-05-23T01:55:51;100243.34;;;17.96;100.00
44457;BME280;30159;49.316;8.558;2023-05-23T01:58:18;100242.09;;;17.93;100.00
44457;BME280;30159;49.316;8.558;2023-05-23T02:00:45;100091.31;;;16.91;100.00
44457;BME280;30159;49.316;8.558;2023-05-23T02:03:13;100233.19;;;17.75;100.00
44457;BME280;30159;49.316;8.558;2023-05-23T02:05:40;100251.47;;;17.83;100.00
44457;BME280;30159;49.316;8.558;2023-05-23T02:08:06;100249.84;;;17.82;100.00
44457;BME280;30159;49.316;8.558;2023-05-23T02:10:33;100248.75;;;17.83;100.00
44457;BME280;30159;49.316;8.558;2023-05-23T02:13:00;100259.19;;;17.81;100.00
44457;BME280;30159;49.316;8.558;2023-05-23T02:15:26;100260.63;;;17.79;100.00
44457;BME280;30159;49.316;8.558;2023-05-23T02:17:53;100255.81;;;17.76;100.00
44457;BME280;30159;49.316;8.558;2023-05-23T02:20:21;100252.75;;;17.77;100.00
44457;BME280;30159;49.316;8.558;2023-05-23T02:22:47;100240.31;;;17.67;100.00
44457;BME280;30159;49.316;8.558;2023-05-23T02:25:14;100262.88;;;17.77;100.00
44457;BME280;30159;49.316;8.558;2023-05-23T02:27:40;100256.78;;;17.71;100.00
44457;BME280;30159;49.316;8.558;2023-05-23T02:30:08;100261.78;;;17.69;100.00
44457;BME280;30159;49.316;8.558;2023-05-23T02:32:34;100256.03;;;17.62;100.00
44457;BME280;30159;49.316;8.558;2023-05-23T02:35:01;100263.25;;;17.66;100.00
44457;BME280;30159;49.316;8.558;2023-05-23T02:37:29;100266.94;;;17.62;100.00
44457;BME280;30159;49.316;8.558;2023-05-23T02:39:56;100259.13;;;17.60;100.00
44457;BME280;30159;49.316;8.558;2023-05-23T02:42:22;100268.41;;;17.59;100.00
44457;BME280;30159;49.316;8.558;2023-05-23T02:44:49;100255.78;;;17.55;100.00
44457;BME280;30159;49.316;8.558;2023-05-23T02:47:15;100265.09;;;17.54;100.00
44457;BME280;30159;49.316;8.558;2023-05-23T02:49:42;100266.19;;;17.53;100.00
44457;BME280;30159;49.316;8.558;2023-05-23T02:52:08;100271.53;;;17.49;100.00
44457;BME280;30159;49.316;8.558;2023-05-23T02:54:36;100271.84;;;17.47;100.00
44457;BME280;30159;49.316;8.558;2023-05-23T02:57:03;100271.38;;;17.45;100.00
44457;BME280;30159;49.316;8.558;2023-05-23T02:59:30;100276.03;;;17.45;100.00
44457;BME280;30159;49.316;8.558;2023-05-23T03:01:57;100274.94;;;17.46;100.00
44457;BME280;30159;49.316;8.558;2023-05-23T03:04:24;100213.50;;;17.10;100.00
44457;BME280;30159;49.316;8.558;2023-05-23T03:06:51;100272.78;;;17.52;100.00
44457;BME280;30159;49.316;8.558;2023-05-23T03:09:18;100268.59;;;17.54;100.00
44457;BME280;30159;49.316;8.558;2023-05-23T03:11:47;100278.41;;;17.55;100.00
44457;BME280;30159;49.316;8.558;2023-05-23T03:14:13;100278.72;;;17.54;100.00
44457;BME280;30159;49.316;8.558;2023-05-23T03:16:40;100276.94;;;17.58;100.00
44457;BME280;30159;49.316;8.558;2023-05-23T03:19:06;100290.72;;;17.61;100.00
44457;BME280;30159;49.316;8.558;2023-05-23T03:21:33;100280.13;;;17.60;100.00
44457;BME280;30159;49.316;8.558;2023-05-23T03:24:00;100281.72;;;17.61;100.00
44457;BME280;30159;49.316;8.558;2023-05-23T03:26:27;100289.25;;;17.64;100.00
44457;BME280;30159;49.316;8.558;2023-05-23T03:28:54;100275.00;;;17.58;100.00
44457;BME280;30159;49.316;8.558;2023-05-23T03:31:21;100287.00;;;17.66;100.00
44457;BME280;30159;49.316;8.558;2023-05-23T03:33:48;100283.94;;;17.67;100.00
44457;BME280;30159;49.316;8.558;2023-05-23T03:36:14;100288.25;;;17.68;100.00
44457;BME280;30159;49.316;8.558;2023-05-23T03:38:41;100294.50;;;17.69;100.00
44457;BME280;30159;49.316;8.558;2023-05-23T03:41:07;100283.16;;;17.67;100.00
44457;BME280;30159;49.316;8.558;2023-05-23T03:43:34;100288.94;;;17.65;100.00
44457;BME280;30159;49.316;8.558;2023-05-23T03:46:01;100263.47;;;17.53;100.00
44457;BME280;30159;49.316;8.558;2023-05-23T03:48:28;100295.59;;;17.77;100.00
44457;BME280;30159;49.316;8.558;2023-05-23T03:50:55;100299.81;;;17.74;100.00
44457;BME280;30159;49.316;8.558;2023-05-23T03:53:21;100301.69;;;17.74;100.00
44457;BME280;30159;49.316;8.558;2023-05-23T03:55:48;100294.34;;;17.74;100.00
44457;BME280;30159;49.316;8.558;2023-05-23T03:58:14;100292.25;;;17.71;100.00
44457;BME280;30159;49.316;8.558;2023-05-23T04:00:41;100304.91;;;17.76;100.00
44457;BME280;30159;49.316;8.558;2023-05-23T04:03:09;100292.41;;;17.75;100.00
44457;BME280;30159;49.316;8.558;2023-05-23T04:05:38;100306.16;;;17.78;100.00
44457;BME280;30159;49.316;8.558;2023-05-23T04:08:05;100307.50;;;17.72;100.00
44457;BME280;30159;49.316;8.558;2023-05-23T04:10:32;100305.09;;;17.70;100.00
44457;BME280;30159;49.316;8.558;2023-05-23T04:12:59;100308.78;;;17.75;100.00
44457;BME280;30159;49.316;8.558;2023-05-23T04:15:25;100308.63;;;17.71;100.00
44457;BME280;30159;49.316;8.558;2023-05-23T04:17:53;100297.91;;;17.66;100.00
44457;BME280;30159;49.316;8.558;2023-05-23T04:20:21;100313.25;;;17.79;100.00
44457;BME280;30159;49.316;8.558;2023-05-23T04:22:48;100317.44;;;17.77;100.00
44457;BME280;30159;49.316;8.558;2023-05-23T04:25:15;100322.41;;;17.83;100.00
44457;BME280;30159;49.316;8.558;2023-05-23T04:27:42;100327.41;;;17.81;100.00
44457;BME280;30159;49.316;8.558;2023-05-23T04:30:09;100329.16;;;17.77;100.00
44457;BME280;30159;49.316;8.558;2023-05-23T04:32:36;100293.31;;;17.58;100.00
44457;BME280;30159;49.316;8.558;2023-05-23T04:35:03;100324.50;;;17.69;100.00
44457;BME280;30159;49.316;8.558;2023-05-23T04:37:31;100328.06;;;17.69;100.00
44457;BME280;30159;49.316;8.558;2023-05-23T04:39:58;100338.31;;;17.73;100.00
44457;BME280;30159;49.316;8.558;2023-05-23T04:42:25;100327.69;;;17.80;100.00
44457;BME280;30159;49.316;8.558;2023-05-23T04:44:53;100336.66;;;17.89;100.00
44457;BME280;30159;49.316;8.558;2023-05-23T04:47:21;100337.72;;;17.97;100.00
44457;BME280;30159;49.316;8.558;2023-05-23T04:49:48;100340.25;;;18.02;100.00
44457;BME280;30159;49.316;8.558;2023-05-23T04:52:18;100334.41;;;18.12;100.00
44457;BME280;30159;49.316;8.558;2023-05-23T04:54:46;100287.19;;;17.61;100.00
44457;BME280;30159;49.316;8.558;2023-05-23T04:57:13;100342.91;;;17.89;100.00
44457;BME280;30159;49.316;8.558;2023-05-23T04:59:39;100340.31;;;17.93;100.00
44457;BME280;30159;49.316;8.558;2023-05-23T05:02:06;100336.88;;;18.05;100.00
44457;BME280;30159;49.316;8.558;2023-05-23T05:04:33;100353.72;;;18.07;100.00
44457;BME280;30159;49.316;8.558;2023-05-23T05:07:00;100347.06;;;18.17;100.00
44457;BME280;30159;49.316;8.558;2023-05-23T05:09:28;100353.22;;;18.14;100.00
44457;BME280;30159;49.316;8.558;2023-05-23T05:11:56;100348.59;;;18.26;100.00
44457;BME280;30159;49.316;8.558;2023-05-23T05:14:24;100336.09;;;18.25;100.00
44457;BME280;30159;49.316;8.558;2023-05-23T05:16:50;100352.22;;;18.18;100.00
44457;BME280;30159;49.316;8.558;2023-05-23T05:19:18;100368.41;;;18.23;100.00
44457;BME280;30159;49.316;8.558;2023-05-23T05:21:45;100366.47;;;18.24;100.00
44457;BME280;30159;49.316;8.558;2023-05-23T05:24:12;100357.19;;;18.16;100.00
44457;BME280;30159;49.316;8.558;2023-05-23T05:26:39;100323.78;;;18.19;100.00
44457;BME280;30159;49.316;8.558;2023-05-23T05:29:07;100378.72;;;18.39;100.00
44457;BME280;30159;49.316;8.558;2023-05-23T05:31:34;100374.94;;;18.52;100.00
44457;BME280;30159;49.316;8.558;2023-05-23T05:34:01;100339.34;;;18.82;100.00
44457;BME280;30159;49.316;8.558;2023-05-23T05:36:28;100385.06;;;19.39;98.39
44457;BME280;30159;49.316;8.558;2023-05-23T05:38:56;100387.00;;;19.51;96.60
44457;BME280;30159;49.316;8.558;2023-05-23T05:41:22;100392.00;;;19.36;97.18
44457;BME280;30159;49.316;8.558;2023-05-23T05:43:49;100389.03;;;19.42;96.58
44457;BME280;30159;49.316;8.558;2023-05-23T05:46:17;100388.47;;;19.24;97.20
44457;BME280;30159;49.316;8.558;2023-05-23T05:48:44;100401.09;;;18.74;99.75
44457;BME280;30159;49.316;8.558;2023-05-23T05:51:11;100400.38;;;18.44;100.00
44457;BME280;30159;49.316;8.558;2023-05-23T05:53:37;100405.44;;;18.54;100.00
44457;BME280;30159;49.316;8.558;2023-05-23T05:56:04;100397.31;;;18.66;99.40
44457;BME280;30159;49.316;8.558;2023-05-23T05:58:33;100403.56;;;18.88;96.79
44457;BME280;30159;49.316;8.558;2023-05-23T06:01:00;100405.88;;;18.86;96.64
44457;BME280;30159;49.316;8.558;2023-05-23T06:03:27;100411.69;;;18.33;99.18
44457;BME280;30159;49.316;8.558;2023-05-23T06:05:54;100427.91;;;18.09;100.00
44457;BME280;30159;49.316;8.558;2023-05-23T06:08:21;100417.34;;;17.99;100.00
44457;BME280;30159;49.316;8.558;2023-05-23T06:10:48;100430.09;;;17.86;100.00
44457;BME280;30159;49.316;8.558;2023-05-23T06:13:14;100425.28;;;17.83;100.00
44457;BME280;30159;49.316;8.558;2023-05-23T06:15:41;100295.47;;;16.88;100.00
44457;BME280;30159;49.316;8.558;2023-05-23T06:18:10;100432.81;;;17.77;100.00
44457;BME280;30159;49.316;8.558;2023-05-23T06:20:38;100433.81;;;17.81;100.00
44457;BME280;30159;49.316;8.558;2023-05-23T06:23:04;100431.84;;;17.90;100.00
44457;BME280;30159;49.316;8.558;2023-05-23T06:25:32;100443.03;;;17.98;100.00
44457;BME280;30159;49.316;8.558;2023-05-23T06:27:59;100432.31;;;17.93;100.00
44457;BME280;30159;49.316;8.558;2023-05-23T06:30:26;100440.78;;;18.00;100.00
44457;BME280;30159;49.316;8.558;2023-05-23T06:32:53;100447.66;;;18.06;100.00
44457;BME280;30159;49.316;8.558;2023-05-23T06:35:20;100450.38;;;18.06;100.00
44457;BME280;30159;49.316;8.558;2023-05-23T06:37:47;100442.19;;;18.06;100.00
44457;BME280;30159;49.316;8.558;2023-05-23T06:40:14;100450.53;;;18.09;100.00
44457;BME280;30159;49.316;8.558;2023-05-23T06:42:40;100451.09;;;18.24;99.55
44457;BME280;30159;49.316;8.558;2023-05-23T06:45:08;100463.53;;;18.13;98.47
44457;BME280;30159;49.316;8.558;2023-05-23T06:47:35;100455.22;;;18.00;99.55
44457;BME280;30159;49.316;8.558;2023-05-23T06:50:02;100404.16;;;17.62;98.25
44457;BME280;30159;49.316;8.558;2023-05-23T06:52:28;100465.28;;;18.08;98.53
44457;BME280;30159;49.316;8.558;2023-05-23T06:54:56;100453.66;;;18.50;96.31
44457;BME280;30159;49.316;8.558;2023-05-23T06:57:23;100472.00;;;19.00;92.42
44457;BME280;30159;49.316;8.558;2023-05-23T06:59:49;100471.56;;;19.10;90.73
44457;BME280;30159;49.316;8.558;2023-05-23T07:02:16;100468.38;;;18.87;90.78
44457;BME280;30159;49.316;8.558;2023-05-23T07:04:43;100483.66;;;18.88;91.63
44457;BME280;30159;49.316;8.558;2023-05-23T07:07:09;100473.72;;;19.05;89.58
44457;BME280;30159;49.316;8.558;2023-05-23T07:09:36;100488.19;;;18.84;88.07
44457;BME280;30159;49.316;8.558;2023-05-23T07:12:05;100480.78;;;18.85;89.81
44457;BME280;30159;49.316;8.558;2023-05-23T07:14:32;100492.13;;;19.16;88.16
44457;BME280;30159;49.316;8.558;2023-05-23T07:17:00;100492.97;;;18.58;89.79
44457;BME280;30159;49.316;8.558;2023-05-23T07:19:26;100494.28;;;18.30;92.42
44457;BME280;30159;49.316;8.558;2023-05-23T07:21:52;100496.44;;;18.16;93.51
44457;BME280;30159;49.316;8.558;2023-05-23T07:24:19;100502.94;;;18.32;93.22
44457;BME280;30159;49.316;8.558;2023-05-23T07:26:46;100502.00;;;18.28;92.63
44457;BME280;30159;49.316;8.558;2023-05-23T07:29:13;100501.41;;;18.14;93.28
44457;BME280;30159;49.316;8.558;2023-05-23T07:31:40;100498.13;;;18.29;92.82
44457;BME280;30159;49.316;8.558;2023-05-23T07:34:06;100532.41;;;18.48;91.85
44457;BME280;30159;49.316;8.558;2023-05-23T07:36:33;100500.50;;;18.69;89.67
44457;BME280;30159;49.316;8.558;2023-05-23T07:39:02;100502.59;;;18.64;89.82
44457;BME280;30159;49.316;8.558;2023-05-23T07:41:28;100504.38;;;18.89;89.36
44457;BME280;30159;49.316;8.558;2023-05-23T07:43:55;100505.41;;;18.76;89.21
44457;BME280;30159;49.316;8.558;2023-05-23T07:46:23;100508.63;;;18.78;90.01
44457;BME280;30159;49.316;8.558;2023-05-23T07:48:49;100481.25;;;18.57;90.78
44457;BME280;30159;49.316;8.558;2023-05-23T07:51:16;100508.03;;;18.43;93.65
44457;BME280;30159;49.316;8.558;2023-05-23T07:53:44;100513.88;;;18.32;94.59
44457;BME280;30159;49.316;8.558;2023-05-23T07:56:11;100516.47;;;18.20;95.46
44457;BME280;30159;49.316;8.558;2023-05-23T07:58:37;100481.53;;;18.05;95.76
44457;BME280;30159;49.316;8.558;2023-05-23T08:01:04;100521.34;;;18.44;95.53
44457;BME280;30159;49.316;8.558;2023-05-23T08:03:32;100438.19;;;18.03;94.26
44457;BME280;30159;49.316;8.558;2023-05-23T08:05:58;100523.75;;;18.46;92.91
44457;BME280;30159;49.316;8.558;2023-05-23T08:08:25;100515.53;;;18.75;92.90
44457;BME280;30159;49.316;8.558;2023-05-23T08:10:51;100445.47;;;18.20;90.17
44457;BME280;30159;49.316;8.558;2023-05-23T08:13:18;100527.84;;;18.61;90.37
44457;BME280;30159;49.316;8.558;2023-05-23T08:15:44;100522.66;;;18.68;89.38
44457;BME280;30159;49.316;8.558;2023-05-23T08:18:11;100517.38;;;19.13;87.97
44457;BME280;30159;49.316;8.558;2023-05-23T08:20:39;100519.03;;;19.27;86.04
44457;BME280;30159;49.316;8.558;2023-05-23T08:23:05;100524.84;;;19.04;86.25
44457;BME280;30159;49.316;8.558;2023-05-23T08:25:32;100525.31;;;18.85;87.51
44457;BME280;30159;49.316;8.558;2023-05-23T08:28:00;100525.13;;;18.90;86.75
44457;BME280;30159;49.316;8.558;2023-05-23T08:30:27;100532.00;;;19.17;88.71
44457;BME280;30159;49.316;8.558;2023-05-23T08:32:54;100525.66;;;19.26;87.24
44457;BME280;30159;49.316;8.558;2023-05-23T08:35:22;100522.19;;;19.37;86.30
44457;BME280;30159;49.316;8.558;2023-05-23T08:37:50;100533.97;;;19.29;84.48
44457;BME280;30159;49.316;8.558;2023-05-23T08:40:18;100526.19;;;19.19;85.30
44457;BME280;30159;49.316;8.558;2023-05-23T08:42:45;100389.56;;;18.26;81.41
44457;BME280;30159;49.316;8.558;2023-05-23T08:45:12;100533.97;;;19.29;82.01
44457;BME280;30159;49.316;8.558;2023-05-23T08:47:41;100515.97;;;19.49;81.39
44457;BME280;30159;49.316;8.558;2023-05-23T08:50:10;100476.25;;;19.10;79.31
44457;BME280;30159;49.316;8.558;2023-05-23T08:52:42;100512.03;;;19.38;78.45
44457;BME280;30159;49.316;8.558;2023-05-23T08:55:10;100404.97;;;18.73;78.01
44457;BME280;30159;49.316;8.558;2023-05-23T08:57:38;100532.50;;;19.32;78.19
44457;BME280;30159;49.316;8.558;2023-05-23T09:00:09;100531.19;;;19.38;78.56
44457;BME280;30159;49.316;8.558;2023-05-23T09:02:39;100522.03;;;19.67;77.80
44457;BME280;30159;49.316;8.558;2023-05-23T09:05:06;100522.59;;;19.82;76.42
44457;BME280;30159;49.316;8.558;2023-05-23T09:07:33;100528.63;;;19.75;78.12
44457;BME280;30159;49.316;8.558;2023-05-23T09:10:01;100495.31;;;19.73;77.74
44457;BME280;30159;49.316;8.558;2023-05-23T09:12:29;100543.22;;;19.79;77.52
44457;BME280;30159;49.316;8.558;2023-05-23T09:14:57;100535.22;;;19.74;78.95
44457;BME280;30159;49.316;8.558;2023-05-23T09:17:24;100526.94;;;19.95;78.66
44457;BME280;30159;49.316;8.558;2023-05-23T09:19:51;100539.13;;;19.97;79.63
44457;BME280;30159;49.316;8.558;2023-05-23T09:22:22;100537.38;;;20.26;81.04
44457;BME280;30159;49.316;8.558;2023-05-23T09:24:50;100544.19;;;20.08;79.50
44457;BME280;30159;49.316;8.558;2023-05-23T09:27:17;100547.63;;;20.41;80.83
44457;BME280;30159;49.316;8.558;2023-05-23T09:29:45;100546.50;;;20.42;75.29
44457;BME280;30159;49.316;8.558;2023-05-23T09:32:13;100529.47;;;20.00;76.55
44457;BME280;30159;49.316;8.558;2023-05-23T09:34:40;100536.16;;;19.90;76.74
44457;BME280;30159;49.316;8.558;2023-05-23T09:37:07;100544.38;;;19.90;77.41
44457;BME280;30159;49.316;8.558;2023-05-23T09:39:37;100545.38;;;19.86;77.52
44457;BME280;30159;49.316;8.558;2023-05-23T09:42:04;100540.97;;;19.93;77.91
44457;BME280;30159;49.316;8.558;2023-05-23T09:44:31;100523.66;;;20.38;76.85
44457;BME280;30159;49.316;8.558;2023-05-23T09:47:05;100545.00;;;20.94;74.22
44457;BME280;30159;49.316;8.558;2023-05-23T09:49:32;100546.41;;;20.63;74.50
44457;BME280;30159;49.316;8.558;2023-05-23T09:51:59;100548.56;;;20.46;75.59
44457;BME280;30159;49.316;8.558;2023-05-23T09:54:25;100538.75;;;20.45;76.52
44457;BME280;30159;49.316;8.558;2023-05-23T09:56:52;100411.59;;;20.09;74.94
44457;BME280;30159;49.316;8.558;2023-05-23T09:59:21;100545.34;;;21.05;73.84
44457;BME280;30159;49.316;8.558;2023-05-23T10:01:50;100540.16;;;20.63;73.95
44457;BME280;30159;49.316;8.558;2023-05-23T10:04:20;100552.31;;;20.53;74.05
44457;BME280;30159;49.316;8.558;2023-05-23T10:06:49;100542.84;;;20.38;75.53
44457;BME280;30159;49.316;8.558;2023-05-23T10:09:20;100539.91;;;20.68;74.99
44457;BME280;30159;49.316;8.558;2023-05-23T10:12:20;100558.00;;;21.10;73.80
44457;BME280;30159;49.316;8.558;2023-05-23T10:15:01;100539.44;;;20.78;75.59
44457;BME280;30159;49.316;8.558;2023-05-23T10:17:34;100506.50;;;20.91;74.34
44457;BME280;30159;49.316;8.558;2023-05-23T10:20:07;100546.22;;;21.09;75.36
44457;BME280;30159;49.316;8.558;2023-05-23T10:22:36;100546.00;;;21.14;75.85
44457;BME280;30159;49.316;8.558;2023-05-23T10:25:04;100553.09;;;21.03;75.59
44457;BME280;30159;49.316;8.558;2023-05-23T10:27:32;100546.81;;;21.02;76.23
44457;BME280;30159;49.316;8.558;2023-05-23T10:29:59;100550.75;;;21.30;75.47
44457;BME280;30159;49.316;8.558;2023-05-23T10:32:26;100546.59;;;21.48;74.40
44457;BME280;30159;49.316;8.558;2023-05-23T10:34:57;100550.47;;;21.91;73.10
44457;BME280;30159;49.316;8.558;2023-05-23T10:37:32;100544.16;;;22.35;71.07
44457;BME280;30159;49.316;8.558;2023-05-23T10:40:06;100542.19;;;22.35;69.68
44457;BME280;30159;49.316;8.558;2023-05-23T10:42:44;100550.50;;;21.47;72.22
44457;BME280;30159;49.316;8.558;2023-05-23T10:45:14;100544.44;;;20.76;75.94
44457;BME280;30159;49.316;8.558;2023-05-23T10:47:40;100534.41;;;20.56;77.32
44457;BME280;30159;49.316;8.558;2023-05-23T10:50:11;100527.09;;;20.48;76.72
44457;BME280;30159;49.316;8.558;2023-05-23T10:52:40;100544.94;;;20.66;75.54
44457;BME280;30159;49.316;8.558;2023-05-23T10:55:12;100548.78;;;20.40;76.28
44457;BME280;30159;49.316;8.558;2023-05-23T10:57:39;100560.41;;;20.25;78.84
44457;BME280;30159;49.316;8.558;2023-05-23T11:00:12;100518.88;;;19.65;81.94
44457;BME280;30159;49.316;8.558;2023-05-23T11:02:46;100555.38;;;19.69;83.29
44457;BME280;30159;49.316;8.558;2023-05-23T11:05:18;100559.19;;;19.77;83.92
44457;BME280;30159;49.316;8.558;2023-05-23T11:08:05;100558.75;;;19.99;82.76
44457;BME280;30159;49.316;8.558;2023-05-23T11:10:32;100557.50;;;19.97;82.24
44457;BME280;30159;49.316;8.558;2023-05-23T11:13:07;100556.19;;;20.15;82.03
44457;BME280;30159;49.316;8.558;2023-05-23T11:15:41;100510.94;;;19.72;81.02
44457;BME280;30159;49.316;8.558;2023-05-23T11:18:18;100567.81;;;20.12;81.98
44457;BME280;30159;49.316;8.558;2023-05-23T11:20:46;100565.91;;;20.37;80.85
44457;BME280;30159;49.316;8.558;2023-05-23T11:23:14;100579.81;;;20.32;81.06
44457;BME280;30159;49.316;8.558;2023-05-23T11:25:42;100571.13;;;20.18;81.32
44457;BME280;30159;49.316;8.558;2023-05-23T11:28:10;100568.84;;;20.32;82.33
44457;BME280;30159;49.316;8.558;2023-05-23T11:30:37;100569.84;;;20.61;78.73
44457;BME280;30159;49.316;8.558;2023-05-23T11:33:08;100561.81;;;20.56;78.28
44457;BME280;30159;49.316;8.558;2023-05-23T11:35:38;100571.06;;;21.00;78.03
44457;BME280;30159;49.316;8.558;2023-05-23T11:38:04;100568.09;;;21.46;74.04
44457;BME280;30159;49.316;8.558;2023-05-23T11:40:34;100564.31;;;21.38;73.57
44457;BME280;30159;49.316;8.558;2023-05-23T11:43:02;100567.44;;;21.24;75.70
44457;BME280;30159;49.316;8.558;2023-05-23T11:45:30;100561.00;;;21.33;74.85
44457;BME280;30159;49.316;8.558;2023-05-23T11:47:57;100567.19;;;21.30;74.77
44457;BME280;30159;49.316;8.558;2023-05-23T11:50:23;100497.84;;;20.39;76.71
44457;BME280;30159;49.316;8.558;2023-05-23T11:52:50;100530.16;;;20.46;78.44
44457;BME280;30159;49.316;8.558;2023-05-23T11:55:17;100559.66;;;20.74;77.73
44457;BME280;30159;49.316;8.558;2023-05-23T11:57:46;100550.19;;;20.59;77.64
44457;BME280;30159;49.316;8.558;2023-05-23T12:00:14;100509.28;;;20.41;79.10
44457;BME280;30159;49.316;8.558;2023-05-23T12:02:43;100554.28;;;20.90;78.00
44457;BME280;30159;49.316;8.558;2023-05-23T12:05:11;100549.44;;;20.99;75.99
44457;BME280;30159;49.316;8.558;2023-05-23T12:07:39;100553.09;;;21.03;74.89
44457;BME280;30159;49.316;8.558;2023-05-23T12:10:07;100548.75;;;21.14;74.02
44457;BME280;30159;49.316;8.558;2023-05-23T12:12:34;100445.25;;;20.34;74.63
44457;BME280;30159;49.316;8.558;2023-05-23T12:15:03;100551.44;;;21.26;73.42
44457;BME280;30159;49.316;8.558;2023-05-23T12:17:30;100548.25;;;21.24;73.29
44457;BME280;30159;49.316;8.558;2023-05-23T12:19:57;100554.59;;;20.88;73.87
44457;BME280;30159;49.316;8.558;2023-05-23T12:22:24;100542.88;;;20.75;75.58
44457;BME280;30159;49.316;8.558;2023-05-23T12:24:52;100551.88;;;20.51;75.80
44457;BME280;30159;49.316;8.558;2023-05-23T12:27:25;100545.38;;;20.80;76.63
44457;BME280;30159;49.316;8.558;2023-05-23T12:30:05;100538.50;;;21.27;74.88
44457;BME280;30159;49.316;8.558;2023-05-23T12:32:31;100539.72;;;21.54;74.65
44457;BME280;30159;49.316;8.558;2023-05-23T12:34:58;100542.00;;;21.52;74.52
44457;BME280;30159;49.316;8.558;2023-05-23T12:37:25;100543.13;;;21.11;74.11
44457;BME280;30159;49.316;8.558;2023-05-23T12:39:51;100553.13;;;20.78;75.98
44457;BME280;30159;49.316;8.558;2023-05-23T12:42:18;100552.69;;;20.76;76.86
44457;BME280;30159;49.316;8.558;2023-05-23T12:44:44;100556.28;;;21.17;76.06
44457;BME280;30159;49.316;8.558;2023-05-23T12:47:14;100547.78;;;20.82;76.66
44457;BME280;30159;49.316;8.558;2023-05-23T12:49:40;100548.81;;;20.77;76.74